sensor_id;sensor_type;location;lat;lon;timestamp;P1;durP1;ratioP1;P2;durP2;ratioP2
29202;SDS011;16245;51.170;4.884;2022-07-23T00:01:20;12.18;;;9.95;;
29202;SDS011;16245;51.170;4.884;2022-07-23T00:03:46;12.48;;;11.18;;
29202;SDS011;16245;51.170;4.884;2022-07-23T00:06:11;12.43;;;10.10;;
29202;SDS011;16245;51.170;4.884;2022-07-23T00:08:37;13.10;;;11.20;;
29202;SDS011;16245;51.170;4.884;2022-07-23T00:11:03;14.15;;;10.38;;
29202;SDS011;16245;51.170;4.884;2022-07-23T00:13:29;13.05;;;11.00;;
29202;SDS011;16245;51.170;4.884;2022-07-23T00:15:54;13.10;;;9.57;;
29202;SDS011;16245;51.170;4.884;2022-07-23T00:18:20;9.65;;;8.73;;
29202;SDS011;16245;51.170;4.884;2022-07-23T00:20:46;10.70;;;9.63;;
29202;SDS011;16245;51.170;4.884;2022-07-23T00:23:12;10.27;;;9.27;;
29202;SDS011;16245;51.170;4.884;2022-07-23T00:25:37;11.05;;;9.95;;
29202;SDS011;16245;51.170;4.884;2022-07-23T00:28:03;12.68;;;10.20;;
29202;SDS011;16245;51.170;4.884;2022-07-23T00:30:30;12.48;;;10.20;;
29202;SDS011;16245;51.170;4.884;2022-07-23T00:33:01;12.95;;;10.27;;
29202;SDS011;16245;51.170;4.884;2022-07-23T00:35:33;11.57;;;10.20;;
29202;SDS011;16245;51.170;4.884;2022-07-23T00:38:00;11.52;;;10.13;;
29202;SDS011;16245;51.170;4.884;2022-07-23T00:40:27;13.35;;;10.63;;
29202;SDS011;16245;51.170;4.884;2022-07-23T00:42:53;10.27;;;9.27;;
29202;SDS011;16245;51.170;4.884;2022-07-23T00:45:19;11.65;;;10.55;;
29202;SDS011;16245;51.170;4.884;2022-07-23T00:47:45;12.20;;;11.00;;
29202;SDS011;16245;51.170;4.884;2022-07-23T00:50:11;12.15;;;10.18;;
29202;SDS011;16245;51.170;4.884;2022-07-23T00:52:37;14.13;;;11.00;;
29202;SDS011;16245;51.170;4.884;2022-07-23T00:55:04;10.77;;;9.82;;
29202;SDS011;16245;51.170;4.884;2022-07-23T00:57:31;12.20;;;9.93;;
29202;SDS011;16245;51.170;4.884;2022-07-23T00:59:57;12.40;;;11.05;;
29202;SDS011;16245;51.170;4.884;2022-07-23T01:02:24;10.93;;;9.82;;
29202;SDS011;16245;51.170;4.884;2022-07-23T01:04:50;11.80;;;10.65;;
29202;SDS011;16245;51.170;4.884;2022-07-23T01:07:17;10.20;;;9.25;;
29202;SDS011;16245;51.170;4.884;2022-07-23T01:09:44;10.27;;;9.27;;
29202;SDS011;16245;51.170;4.884;2022-07-23T01:12:11;13.35;;;10.90;;
29202;SDS011;16245;51.170;4.884;2022-07-23T01:14:37;11.68;;;9.13;;
29202;SDS011;16245;51.170;4.884;2022-07-23T01:17:03;9.40;;;8.48;;
29202;SDS011;16245;51.170;4.884;2022-07-23T01:19:29;9.80;;;8.05;;
29202;SDS011;16245;51.170;4.884;2022-07-23T01:21:56;10.70;;;8.95;;
29202;SDS011;16245;51.170;4.884;2022-07-23T01:24:23;17.75;;;10.52;;
29202;SDS011;16245;51.170;4.884;2022-07-23T01:26:49;12.52;;;11.32;;
29202;SDS011;16245;51.170;4.884;2022-07-23T01:29:15;9.80;;;7.95;;
29202;SDS011;16245;51.170;4.884;2022-07-23T01:31:41;10.50;;;9.35;;
29202;SDS011;16245;51.170;4.884;2022-07-23T01:34:07;13.32;;;9.60;;
29202;SDS011;16245;51.170;4.884;2022-07-23T01:36:34;9.57;;;8.68;;
29202;SDS011;16245;51.170;4.884;2022-07-23T01:39:00;8.98;;;8.15;;
29202;SDS011;16245;51.170;4.884;2022-07-23T01:41:27;10.95;;;8.93;;
29202;SDS011;16245;51.170;4.884;2022-07-23T01:43:53;9.00;;;7.63;;
29202;SDS011;16245;51.170;4.884;2022-07-23T01:46:18;10.27;;;8.68;;
29202;SDS011;16245;51.170;4.884;2022-07-23T01:48:44;9.50;;;8.48;;
29202;SDS011;16245;51.170;4.884;2022-07-23T01:51:10;9.48;;;8.57;;
29202;SDS011;16245;51.170;4.884;2022-07-23T01:53:36;9.02;;;8.05;;
29202;SDS011;16245;51.170;4.884;2022-07-23T01:56:01;7.60;;;6.90;;
29202;SDS011;16245;51.170;4.884;2022-07-23T01:58:28;11.05;;;7.45;;
29202;SDS011;16245;51.170;4.884;2022-07-23T02:00:54;8.77;;;7.85;;
29202;SDS011;16245;51.170;4.884;2022-07-23T02:03:20;7.65;;;6.95;;
29202;SDS011;16245;51.170;4.884;2022-07-23T02:05:46;9.55;;;8.65;;
29202;SDS011;16245;51.170;4.884;2022-07-23T02:08:12;8.77;;;7.85;;
29202;SDS011;16245;51.170;4.884;2022-07-23T02:10:37;10.13;;;9.02;;
29202;SDS011;16245;51.170;4.884;2022-07-23T02:13:03;9.05;;;8.25;;
29202;SDS011;16245;51.170;4.884;2022-07-23T02:15:29;9.82;;;8.82;;
29202;SDS011;16245;51.170;4.884;2022-07-23T02:17:55;8.45;;;7.65;;
29202;SDS011;16245;51.170;4.884;2022-07-23T02:20:21;9.68;;;8.30;;
29202;SDS011;16245;51.170;4.884;2022-07-23T02:22:47;9.23;;;7.85;;
29202;SDS011;16245;51.170;4.884;2022-07-23T02:25:13;9.20;;;8.20;;
29202;SDS011;16245;51.170;4.884;2022-07-23T02:27:39;9.40;;;8.40;;
29202;SDS011;16245;51.170;4.884;2022-07-23T02:30:05;9.13;;;8.23;;
29202;SDS011;16245;51.170;4.884;2022-07-23T02:32:31;10.98;;;8.18;;
29202;SDS011;16245;51.170;4.884;2022-07-23T02:34:56;9.48;;;7.38;;
29202;SDS011;16245;51.170;4.884;2022-07-23T02:37:22;9.90;;;7.65;;
29202;SDS011;16245;51.170;4.884;2022-07-23T02:39:48;8.90;;;8.05;;
29202;SDS011;16245;51.170;4.884;2022-07-23T02:42:14;11.30;;;7.75;;
29202;SDS011;16245;51.170;4.884;2022-07-23T02:44:40;10.02;;;6.95;;
29202;SDS011;16245;51.170;4.884;2022-07-23T02:47:06;8.40;;;7.60;;
29202;SDS011;16245;51.170;4.884;2022-07-23T02:49:32;7.72;;;6.93;;
29202;SDS011;16245;51.170;4.884;2022-07-23T02:51:57;7.72;;;6.93;;
29202;SDS011;16245;51.170;4.884;2022-07-23T02:54:23;7.93;;;7.22;;
29202;SDS011;16245;51.170;4.884;2022-07-23T02:56:48;8.60;;;7.47;;
29202;SDS011;16245;51.170;4.884;2022-07-23T02:59:16;9.07;;;7.05;;
29202;SDS011;16245;51.170;4.884;2022-07-23T03:01:42;9.25;;;8.35;;
29202;SDS011;16245;51.170;4.884;2022-07-23T03:04:07;10.82;;;7.68;;
29202;SDS011;16245;51.170;4.884;2022-07-23T03:06:33;8.35;;;7.47;;
29202;SDS011;16245;51.170;4.884;2022-07-23T03:08:59;12.27;;;8.32;;
29202;SDS011;16245;51.170;4.884;2022-07-23T03:11:24;9.18;;;7.38;;
29202;SDS011;16245;51.170;4.884;2022-07-23T03:13:50;7.57;;;6.88;;
29202;SDS011;16245;51.170;4.884;2022-07-23T03:16:16;8.88;;;6.68;;
29202;SDS011;16245;51.170;4.884;2022-07-23T03:18:41;8.70;;;6.50;;
29202;SDS011;16245;51.170;4.884;2022-07-23T03:21:07;9.05;;;7.22;;
29202;SDS011;16245;51.170;4.884;2022-07-23T03:23:33;7.32;;;5.95;;
29202;SDS011;16245;51.170;4.884;2022-07-23T03:25:59;7.18;;;6.40;;
29202;SDS011;16245;51.170;4.884;2022-07-23T03:28:24;6.85;;;6.15;;
29202;SDS011;16245;51.170;4.884;2022-07-23T03:30:50;7.10;;;6.40;;
29202;SDS011;16245;51.170;4.884;2022-07-23T03:33:16;7.70;;;6.90;;
29202;SDS011;16245;51.170;4.884;2022-07-23T03:35:43;7.25;;;6.55;;
29202;SDS011;16245;51.170;4.884;2022-07-23T03:38:10;7.78;;;6.97;;
29202;SDS011;16245;51.170;4.884;2022-07-23T03:40:36;7.10;;;6.40;;
29202;SDS011;16245;51.170;4.884;2022-07-23T03:43:02;7.18;;;6.20;;
29202;SDS011;16245;51.170;4.884;2022-07-23T03:45:28;9.50;;;6.97;;
29202;SDS011;16245;51.170;4.884;2022-07-23T03:47:53;6.97;;;6.28;;
29202;SDS011;16245;51.170;4.884;2022-07-23T03:50:19;6.93;;;6.32;;
29202;SDS011;16245;51.170;4.884;2022-07-23T03:52:45;8.35;;;6.72;;
29202;SDS011;16245;51.170;4.884;2022-07-23T03:55:11;6.60;;;6.00;;
29202;SDS011;16245;51.170;4.884;2022-07-23T03:57:37;7.60;;;5.55;;
29202;SDS011;16245;51.170;4.884;2022-07-23T04:00:03;7.28;;;5.88;;
29202;SDS011;16245;51.170;4.884;2022-07-23T04:02:31;7.40;;;5.72;;
29202;SDS011;16245;51.170;4.884;2022-07-23T04:04:56;7.57;;;6.28;;
29202;SDS011;16245;51.170;4.884;2022-07-23T04:07:22;7.40;;;6.55;;
29202;SDS011;16245;51.170;4.884;2022-07-23T04:09:48;6.72;;;6.13;;
29202;SDS011;16245;51.170;4.884;2022-07-23T04:12:14;6.45;;;5.78;;
29202;SDS011;16245;51.170;4.884;2022-07-23T04:14:40;9.18;;;7.22;;
29202;SDS011;16245;51.170;4.884;2022-07-23T04:17:05;6.32;;;5.72;;
29202;SDS011;16245;51.170;4.884;2022-07-23T04:19:31;6.00;;;5.40;;
29202;SDS011;16245;51.170;4.884;2022-07-23T04:21:57;5.82;;;5.30;;
29202;SDS011;16245;51.170;4.884;2022-07-23T04:24:23;5.55;;;4.85;;
29202;SDS011;16245;51.170;4.884;2022-07-23T04:26:48;6.25;;;5.13;;
29202;SDS011;16245;51.170;4.884;2022-07-23T04:29:14;5.47;;;4.97;;
29202;SDS011;16245;51.170;4.884;2022-07-23T04:31:39;6.68;;;4.53;;
29202;SDS011;16245;51.170;4.884;2022-07-23T04:34:05;7.05;;;5.28;;
29202;SDS011;16245;51.170;4.884;2022-07-23T04:36:31;6.13;;;5.55;;
29202;SDS011;16245;51.170;4.884;2022-07-23T04:38:56;6.38;;;5.78;;
29202;SDS011;16245;51.170;4.884;2022-07-23T04:41:22;7.03;;;6.28;;
29202;SDS011;16245;51.170;4.884;2022-07-23T04:43:48;8.50;;;6.30;;
29202;SDS011;16245;51.170;4.884;2022-07-23T04:46:13;6.75;;;6.07;;
29202;SDS011;16245;51.170;4.884;2022-07-23T04:48:39;6.47;;;5.88;;
29202;SDS011;16245;51.170;4.884;2022-07-23T04:51:05;9.40;;;7.43;;
29202;SDS011;16245;51.170;4.884;2022-07-23T04:53:31;9.55;;;7.75;;
29202;SDS011;16245;51.170;4.884;2022-07-23T04:55:56;7.70;;;6.82;;
29202;SDS011;16245;51.170;4.884;2022-07-23T04:58:22;9.07;;;7.72;;
29202;SDS011;16245;51.170;4.884;2022-07-23T05:00:48;8.20;;;7.40;;
29202;SDS011;16245;51.170;4.884;2022-07-23T05:03:14;7.45;;;6.28;;
29202;SDS011;16245;51.170;4.884;2022-07-23T05:05:40;8.02;;;6.47;;
29202;SDS011;16245;51.170;4.884;2022-07-23T05:08:05;9.90;;;6.60;;
29202;SDS011;16245;51.170;4.884;2022-07-23T05:10:31;6.68;;;5.97;;
29202;SDS011;16245;51.170;4.884;2022-07-23T05:12:57;10.80;;;7.43;;
29202;SDS011;16245;51.170;4.884;2022-07-23T05:15:22;8.32;;;7.15;;
29202;SDS011;16245;51.170;4.884;2022-07-23T05:17:48;7.40;;;6.70;;
29202;SDS011;16245;51.170;4.884;2022-07-23T05:20:14;8.65;;;7.53;;
29202;SDS011;16245;51.170;4.884;2022-07-23T05:22:40;10.93;;;8.45;;
29202;SDS011;16245;51.170;4.884;2022-07-23T05:25:06;10.45;;;7.93;;
29202;SDS011;16245;51.170;4.884;2022-07-23T05:27:32;8.88;;;7.97;;
29202;SDS011;16245;51.170;4.884;2022-07-23T05:29:57;9.50;;;7.75;;
29202;SDS011;16245;51.170;4.884;2022-07-23T05:32:23;9.68;;;7.60;;
29202;SDS011;16245;51.170;4.884;2022-07-23T05:34:49;12.52;;;8.35;;
29202;SDS011;16245;51.170;4.884;2022-07-23T05:37:15;11.65;;;8.00;;
29202;SDS011;16245;51.170;4.884;2022-07-23T05:39:41;10.18;;;8.38;;
29202;SDS011;16245;51.170;4.884;2022-07-23T05:42:06;11.45;;;8.80;;
29202;SDS011;16245;51.170;4.884;2022-07-23T05:44:32;11.45;;;9.27;;
29202;SDS011;16245;51.170;4.884;2022-07-23T05:46:58;8.85;;;7.85;;
29202;SDS011;16245;51.170;4.884;2022-07-23T05:49:24;9.07;;;7.85;;
29202;SDS011;16245;51.170;4.884;2022-07-23T05:51:50;8.43;;;7.53;;
29202;SDS011;16245;51.170;4.884;2022-07-23T05:54:15;9.27;;;8.25;;
29202;SDS011;16245;51.170;4.884;2022-07-23T05:56:41;11.77;;;8.13;;
29202;SDS011;16245;51.170;4.884;2022-07-23T05:59:07;10.02;;;8.88;;
29202;SDS011;16245;51.170;4.884;2022-07-23T06:01:33;8.98;;;8.10;;
29202;SDS011;16245;51.170;4.884;2022-07-23T06:03:58;8.88;;;8.00;;
29202;SDS011;16245;51.170;4.884;2022-07-23T06:06:24;9.88;;;7.82;;
29202;SDS011;16245;51.170;4.884;2022-07-23T06:08:49;10.68;;;8.35;;
29202;SDS011;16245;51.170;4.884;2022-07-23T06:11:15;8.15;;;7.35;;
29202;SDS011;16245;51.170;4.884;2022-07-23T06:13:41;9.77;;;7.28;;
29202;SDS011;16245;51.170;4.884;2022-07-23T06:16:06;7.97;;;7.28;;
29202;SDS011;16245;51.170;4.884;2022-07-23T06:18:32;9.32;;;6.75;;
29202;SDS011;16245;51.170;4.884;2022-07-23T06:20:58;7.43;;;6.38;;
29202;SDS011;16245;51.170;4.884;2022-07-23T06:23:23;9.63;;;6.93;;
29202;SDS011;16245;51.170;4.884;2022-07-23T06:25:49;6.68;;;5.97;;
29202;SDS011;16245;51.170;4.884;2022-07-23T06:28:15;7.78;;;6.72;;
29202;SDS011;16245;51.170;4.884;2022-07-23T06:30:40;9.45;;;7.43;;
29202;SDS011;16245;51.170;4.884;2022-07-23T06:33:06;10.75;;;7.35;;
29202;SDS011;16245;51.170;4.884;2022-07-23T06:35:32;7.53;;;6.43;;
29202;SDS011;16245;51.170;4.884;2022-07-23T06:37:58;8.07;;;5.75;;
29202;SDS011;16245;51.170;4.884;2022-07-23T06:40:24;10.00;;;7.47;;
29202;SDS011;16245;51.170;4.884;2022-07-23T06:42:50;9.30;;;6.25;;
29202;SDS011;16245;51.170;4.884;2022-07-23T06:45:16;6.43;;;5.82;;
29202;SDS011;16245;51.170;4.884;2022-07-23T06:47:42;9.82;;;6.60;;
29202;SDS011;16245;51.170;4.884;2022-07-23T06:50:08;6.70;;;4.85;;
29202;SDS011;16245;51.170;4.884;2022-07-23T06:52:34;10.50;;;5.97;;
29202;SDS011;16245;51.170;4.884;2022-07-23T06:54:59;7.35;;;5.22;;
29202;SDS011;16245;51.170;4.884;2022-07-23T06:57:25;5.82;;;5.32;;
29202;SDS011;16245;51.170;4.884;2022-07-23T06:59:51;7.35;;;5.40;;
29202;SDS011;16245;51.170;4.884;2022-07-23T07:02:17;6.47;;;4.97;;
29202;SDS011;16245;51.170;4.884;2022-07-23T07:04:43;5.22;;;4.68;;
29202;SDS011;16245;51.170;4.884;2022-07-23T07:07:08;5.90;;;4.63;;
29202;SDS011;16245;51.170;4.884;2022-07-23T07:09:34;7.40;;;4.78;;
29202;SDS011;16245;51.170;4.884;2022-07-23T07:12:00;7.30;;;4.85;;
29202;SDS011;16245;51.170;4.884;2022-07-23T07:14:26;7.53;;;4.63;;
29202;SDS011;16245;51.170;4.884;2022-07-23T07:16:52;5.90;;;4.65;;
29202;SDS011;16245;51.170;4.884;2022-07-23T07:19:18;6.65;;;5.10;;
29202;SDS011;16245;51.170;4.884;2022-07-23T07:21:43;6.30;;;4.28;;
29202;SDS011;16245;51.170;4.884;2022-07-23T07:24:09;5.55;;;3.63;;
29202;SDS011;16245;51.170;4.884;2022-07-23T07:26:34;6.60;;;4.90;;
29202;SDS011;16245;51.170;4.884;2022-07-23T07:29:00;6.20;;;3.90;;
29202;SDS011;16245;51.170;4.884;2022-07-23T07:31:27;6.20;;;3.58;;
29202;SDS011;16245;51.170;4.884;2022-07-23T07:33:53;5.80;;;4.90;;
29202;SDS011;16245;51.170;4.884;2022-07-23T07:36:21;7.38;;;3.83;;
29202;SDS011;16245;51.170;4.884;2022-07-23T07:38:47;6.70;;;4.78;;
29202;SDS011;16245;51.170;4.884;2022-07-23T07:41:13;6.35;;;4.82;;
29202;SDS011;16245;51.170;4.884;2022-07-23T07:43:39;4.75;;;3.72;;
29202;SDS011;16245;51.170;4.884;2022-07-23T07:46:05;4.10;;;3.35;;
29202;SDS011;16245;51.170;4.884;2022-07-23T07:48:34;5.72;;;5.05;;
29202;SDS011;16245;51.170;4.884;2022-07-23T07:51:04;3.92;;;3.50;;
29202;SDS011;16245;51.170;4.884;2022-07-23T07:53:30;8.40;;;4.75;;
29202;SDS011;16245;51.170;4.884;2022-07-23T07:55:55;8.20;;;4.72;;
29202;SDS011;16245;51.170;4.884;2022-07-23T07:58:21;6.15;;;4.68;;
29202;SDS011;16245;51.170;4.884;2022-07-23T08:00:47;6.53;;;4.53;;
29202;SDS011;16245;51.170;4.884;2022-07-23T08:03:12;5.53;;;4.47;;
29202;SDS011;16245;51.170;4.884;2022-07-23T08:05:38;6.40;;;5.03;;
29202;SDS011;16245;51.170;4.884;2022-07-23T08:08:04;4.75;;;4.32;;
29202;SDS011;16245;51.170;4.884;2022-07-23T08:10:30;5.28;;;3.70;;
29202;SDS011;16245;51.170;4.884;2022-07-23T08:12:56;6.13;;;4.43;;
29202;SDS011;16245;51.170;4.884;2022-07-23T08:15:23;7.38;;;4.40;;
29202;SDS011;16245;51.170;4.884;2022-07-23T08:17:51;7.78;;;4.72;;
29202;SDS011;16245;51.170;4.884;2022-07-23T08:20:17;7.65;;;5.22;;
29202;SDS011;16245;51.170;4.884;2022-07-23T08:22:48;5.93;;;3.95;;
29202;SDS011;16245;51.170;4.884;2022-07-23T08:25:15;4.22;;;3.85;;
29202;SDS011;16245;51.170;4.884;2022-07-23T08:27:44;5.93;;;5.32;;
29202;SDS011;16245;51.170;4.884;2022-07-23T08:30:10;5.75;;;4.28;;
29202;SDS011;16245;51.170;4.884;2022-07-23T08:33:10;6.82;;;4.20;;
29202;SDS011;16245;51.170;4.884;2022-07-23T08:35:41;5.68;;;4.20;;
29202;SDS011;16245;51.170;4.884;2022-07-23T08:38:11;7.22;;;5.15;;
29202;SDS011;16245;51.170;4.884;2022-07-23T08:40:43;5.18;;;4.03;;
29202;SDS011;16245;51.170;4.884;2022-07-23T08:43:11;8.20;;;5.63;;
29202;SDS011;16245;51.170;4.884;2022-07-23T08:45:39;5.43;;;3.90;;
29202;SDS011;16245;51.170;4.884;2022-07-23T08:48:08;5.00;;;4.53;;
29202;SDS011;16245;51.170;4.884;2022-07-23T08:50:37;5.55;;;4.15;;
29202;SDS011;16245;51.170;4.884;2022-07-23T08:53:07;5.60;;;5.05;;
29202;SDS011;16245;51.170;4.884;2022-07-23T08:55:33;5.95;;;4.13;;
29202;SDS011;16245;51.170;4.884;2022-07-23T08:57:59;6.00;;;4.50;;
29202;SDS011;16245;51.170;4.884;2022-07-23T09:00:25;6.63;;;5.57;;
29202;SDS011;16245;51.170;4.884;2022-07-23T09:02:51;8.85;;;5.07;;
29202;SDS011;16245;51.170;4.884;2022-07-23T09:05:17;6.70;;;4.03;;
29202;SDS011;16245;51.170;4.884;2022-07-23T09:13:37;6.30;;;5.60;;
29202;SDS011;16245;51.170;4.884;2022-07-23T09:16:09;6.97;;;4.80;;
29202;SDS011;16245;51.170;4.884;2022-07-23T09:18:41;5.13;;;4.63;;
29202;SDS011;16245;51.170;4.884;2022-07-23T09:21:11;5.30;;;4.28;;
29202;SDS011;16245;51.170;4.884;2022-07-23T09:23:49;6.85;;;4.97;;
29202;SDS011;16245;51.170;4.884;2022-07-23T09:26:21;6.13;;;4.63;;
29202;SDS011;16245;51.170;4.884;2022-07-23T09:28:50;5.72;;;4.72;;
29202;SDS011;16245;51.170;4.884;2022-07-23T09:31:18;7.97;;;4.68;;
29202;SDS011;16245;51.170;4.884;2022-07-23T09:33:45;4.82;;;4.32;;
29202;SDS011;16245;51.170;4.884;2022-07-23T09:36:11;6.47;;;4.90;;
29202;SDS011;16245;51.170;4.884;2022-07-23T09:38:47;5.65;;;4.55;;
29202;SDS011;16245;51.170;4.884;2022-07-23T09:41:14;4.72;;;4.28;;
29202;SDS011;16245;51.170;4.884;2022-07-23T09:43:40;6.93;;;4.32;;
29202;SDS011;16245;51.170;4.884;2022-07-23T09:48:51;8.70;;;5.60;;
29202;SDS011;16245;51.170;4.884;2022-07-23T09:51:19;6.38;;;4.75;;
29202;SDS011;16245;51.170;4.884;2022-07-23T09:54:03;9.05;;;4.13;;
29202;SDS011;16245;51.170;4.884;2022-07-23T09:56:29;7.00;;;5.20;;
29202;SDS011;16245;51.170;4.884;2022-07-23T09:58:56;7.82;;;5.10;;
29202;SDS011;16245;51.170;4.884;2022-07-23T10:01:52;6.75;;;4.25;;
29202;SDS011;16245;51.170;4.884;2022-07-23T10:04:21;6.78;;;4.40;;
29202;SDS011;16245;51.170;4.884;2022-07-23T10:06:50;5.45;;;4.85;;
29202;SDS011;16245;51.170;4.884;2022-07-23T10:09:18;6.88;;;4.60;;
29202;SDS011;16245;51.170;4.884;2022-07-23T10:11:48;5.05;;;4.25;;
29202;SDS011;16245;51.170;4.884;2022-07-23T10:14:15;4.95;;;4.45;;
29202;SDS011;16245;51.170;4.884;2022-07-23T10:16:41;5.03;;;4.35;;
29202;SDS011;16245;51.170;4.884;2022-07-23T10:19:07;7.22;;;4.00;;
29202;SDS011;16245;51.170;4.884;2022-07-23T10:21:39;6.38;;;3.63;;
29202;SDS011;16245;51.170;4.884;2022-07-23T10:24:12;5.00;;;3.88;;
29202;SDS011;16245;51.170;4.884;2022-07-23T10:29:45;4.25;;;3.85;;
29202;SDS011;16245;51.170;4.884;2022-07-23T10:34:49;5.15;;;3.47;;
29202;SDS011;16245;51.170;4.884;2022-07-23T10:37:33;4.63;;;3.50;;
29202;SDS011;16245;51.170;4.884;2022-07-23T10:40:15;3.88;;;3.47;;
29202;SDS011;16245;51.170;4.884;2022-07-23T10:42:43;5.38;;;3.05;;
29202;SDS011;16245;51.170;4.884;2022-07-23T10:45:23;5.30;;;2.70;;
29202;SDS011;16245;51.170;4.884;2022-07-23T10:47:49;3.85;;;3.10;;
29202;SDS011;16245;51.170;4.884;2022-07-23T10:50:19;3.10;;;2.80;;
29202;SDS011;16245;51.170;4.884;2022-07-23T10:53:08;4.28;;;2.25;;
29202;SDS011;16245;51.170;4.884;2022-07-23T10:55:39;3.13;;;2.83;;
29202;SDS011;16245;51.170;4.884;2022-07-23T10:58:06;4.15;;;3.13;;
29202;SDS011;16245;51.170;4.884;2022-07-23T11:00:32;4.80;;;2.83;;
29202;SDS011;16245;51.170;4.884;2022-07-23T11:03:00;2.28;;;2.10;;
29202;SDS011;16245;51.170;4.884;2022-07-23T11:05:40;3.47;;;3.17;;
29202;SDS011;16245;51.170;4.884;2022-07-23T11:16:23;2.60;;;1.25;;
29202;SDS011;16245;51.170;4.884;2022-07-23T11:21:58;2.65;;;2.15;;
29202;SDS011;16245;51.170;4.884;2022-07-23T11:24:08;3.38;;;2.55;;
29202;SDS011;16245;51.170;4.884;2022-07-23T11:32:00;3.08;;;1.90;;
29202;SDS011;16245;51.170;4.884;2022-07-23T11:37:12;1.70;;;1.60;;
29202;SDS011;16245;51.170;4.884;2022-07-23T11:39:54;2.08;;;1.88;;
29202;SDS011;16245;51.170;4.884;2022-07-23T11:42:20;1.58;;;1.48;;
29202;SDS011;16245;51.170;4.884;2022-07-23T11:44:46;4.22;;;2.00;;
29202;SDS011;16245;51.170;4.884;2022-07-23T11:47:13;2.40;;;2.20;;
29202;SDS011;16245;51.170;4.884;2022-07-23T11:49:39;2.10;;;1.90;;
29202;SDS011;16245;51.170;4.884;2022-07-23T11:52:16;2.92;;;2.20;;
29202;SDS011;16245;51.170;4.884;2022-07-23T11:54:53;2.13;;;1.92;;
29202;SDS011;16245;51.170;4.884;2022-07-23T11:57:21;2.80;;;1.70;;
29202;SDS011;16245;51.170;4.884;2022-07-23T11:59:51;1.98;;;1.55;;
29202;SDS011;16245;51.170;4.884;2022-07-23T12:02:21;1.67;;;1.58;;
29202;SDS011;16245;51.170;4.884;2022-07-23T12:04:48;2.70;;;1.73;;
29202;SDS011;16245;51.170;4.884;2022-07-23T12:09:51;2.03;;;1.52;;
29202;SDS011;16245;51.170;4.884;2022-07-23T12:12:17;1.90;;;1.63;;
29202;SDS011;16245;51.170;4.884;2022-07-23T12:14:49;3.70;;;1.85;;
29202;SDS011;16245;51.170;4.884;2022-07-23T12:17:14;1.95;;;1.77;;
29202;SDS011;16245;51.170;4.884;2022-07-23T12:19:40;3.20;;;1.98;;
29202;SDS011;16245;51.170;4.884;2022-07-23T12:22:06;2.35;;;1.88;;
29202;SDS011;16245;51.170;4.884;2022-07-23T12:24:51;3.60;;;1.95;;
29202;SDS011;16245;51.170;4.884;2022-07-23T12:27:22;1.77;;;1.67;;
29202;SDS011;16245;51.170;4.884;2022-07-23T12:29:48;2.20;;;2.00;;
29202;SDS011;16245;51.170;4.884;2022-07-23T12:34:43;3.45;;;1.35;;
29202;SDS011;16245;51.170;4.884;2022-07-23T12:42:53;2.50;;;2.03;;
29202;SDS011;16245;51.170;4.884;2022-07-23T12:45:24;3.30;;;2.13;;
29202;SDS011;16245;51.170;4.884;2022-07-23T12:48:00;2.67;;;2.47;;
29202;SDS011;16245;51.170;4.884;2022-07-23T12:50:34;3.03;;;2.17;;
29202;SDS011;16245;51.170;4.884;2022-07-23T12:53:07;1.98;;;1.88;;
29202;SDS011;16245;51.170;4.884;2022-07-23T12:55:35;2.10;;;1.83;;
29202;SDS011;16245;51.170;4.884;2022-07-23T12:58:08;1.73;;;1.63;;
29202;SDS011;16245;51.170;4.884;2022-07-23T13:03:24;2.97;;;1.85;;
29202;SDS011;16245;51.170;4.884;2022-07-23T13:05:52;2.55;;;1.60;;
29202;SDS011;16245;51.170;4.884;2022-07-23T13:08:19;1.85;;;1.67;;
29202;SDS011;16245;51.170;4.884;2022-07-23T13:10:45;3.33;;;2.00;;
29202;SDS011;16245;51.170;4.884;2022-07-23T13:13:13;3.03;;;2.25;;
29202;SDS011;16245;51.170;4.884;2022-07-23T13:15:40;3.28;;;2.30;;
29202;SDS011;16245;51.170;4.884;2022-07-23T13:18:05;5.57;;;2.65;;
29202;SDS011;16245;51.170;4.884;2022-07-23T13:20:31;2.95;;;2.08;;
29202;SDS011;16245;51.170;4.884;2022-07-23T13:22:59;2.65;;;2.00;;
29202;SDS011;16245;51.170;4.884;2022-07-23T13:25:25;3.60;;;2.13;;
29202;SDS011;16245;51.170;4.884;2022-07-23T13:27:51;4.13;;;2.20;;
29202;SDS011;16245;51.170;4.884;2022-07-23T13:30:16;2.83;;;1.80;;
29202;SDS011;16245;51.170;4.884;2022-07-23T13:32:42;4.60;;;2.35;;
29202;SDS011;16245;51.170;4.884;2022-07-23T13:35:08;3.63;;;2.10;;
29202;SDS011;16245;51.170;4.884;2022-07-23T13:37:34;2.65;;;2.38;;
29202;SDS011;16245;51.170;4.884;2022-07-23T13:40:00;2.60;;;1.90;;
29202;SDS011;16245;51.170;4.884;2022-07-23T13:42:26;2.53;;;2.33;;
29202;SDS011;16245;51.170;4.884;2022-07-23T13:44:52;2.78;;;2.03;;
29202;SDS011;16245;51.170;4.884;2022-07-23T13:47:18;3.20;;;2.15;;
29202;SDS011;16245;51.170;4.884;2022-07-23T13:49:43;2.88;;;2.60;;
29202;SDS011;16245;51.170;4.884;2022-07-23T13:52:09;2.03;;;1.77;;
29202;SDS011;16245;51.170;4.884;2022-07-23T13:54:35;1.95;;;1.85;;
29202;SDS011;16245;51.170;4.884;2022-07-23T13:57:01;2.25;;;2.10;;
29202;SDS011;16245;51.170;4.884;2022-07-23T13:59:27;2.38;;;2.13;;
29202;SDS011;16245;51.170;4.884;2022-07-23T14:01:53;3.53;;;2.30;;
29202;SDS011;16245;51.170;4.884;2022-07-23T14:04:19;4.82;;;3.13;;
29202;SDS011;16245;51.170;4.884;2022-07-23T14:06:46;2.80;;;2.60;;
29202;SDS011;16245;51.170;4.884;2022-07-23T14:09:14;3.95;;;3.00;;
29202;SDS011;16245;51.170;4.884;2022-07-23T14:11:43;3.50;;;3.20;;
29202;SDS011;16245;51.170;4.884;2022-07-23T14:14:08;5.00;;;2.80;;
29202;SDS011;16245;51.170;4.884;2022-07-23T14:16:34;3.42;;;3.13;;
29202;SDS011;16245;51.170;4.884;2022-07-23T14:19:01;3.20;;;2.90;;
29202;SDS011;16245;51.170;4.884;2022-07-23T14:21:27;3.80;;;2.70;;
29202;SDS011;16245;51.170;4.884;2022-07-23T14:23:53;2.70;;;2.50;;
29202;SDS011;16245;51.170;4.884;2022-07-23T14:26:19;3.10;;;2.75;;
29202;SDS011;16245;51.170;4.884;2022-07-23T14:28:45;2.72;;;2.53;;
29202;SDS011;16245;51.170;4.884;2022-07-23T14:31:10;4.32;;;2.55;;
29202;SDS011;16245;51.170;4.884;2022-07-23T14:33:36;4.55;;;3.28;;
29202;SDS011;16245;51.170;4.884;2022-07-23T14:36:02;3.58;;;2.20;;
29202;SDS011;16245;51.170;4.884;2022-07-23T14:38:28;3.30;;;2.58;;
29202;SDS011;16245;51.170;4.884;2022-07-23T14:40:55;3.05;;;2.75;;
29202;SDS011;16245;51.170;4.884;2022-07-23T14:43:21;3.47;;;3.00;;
29202;SDS011;16245;51.170;4.884;2022-07-23T14:45:47;2.95;;;2.75;;
29202;SDS011;16245;51.170;4.884;2022-07-23T14:48:12;5.18;;;2.65;;
29202;SDS011;16245;51.170;4.884;2022-07-23T14:50:38;3.83;;;2.97;;
29202;SDS011;16245;51.170;4.884;2022-07-23T14:53:04;2.63;;;2.42;;
29202;SDS011;16245;51.170;4.884;2022-07-23T14:55:30;3.30;;;3.00;;
29202;SDS011;16245;51.170;4.884;2022-07-23T14:57:57;3.15;;;2.85;;
29202;SDS011;16245;51.170;4.884;2022-07-23T15:00:23;5.38;;;2.85;;
29202;SDS011;16245;51.170;4.884;2022-07-23T15:02:48;6.00;;;2.92;;
29202;SDS011;16245;51.170;4.884;2022-07-23T15:05:14;4.30;;;2.85;;
29202;SDS011;16245;51.170;4.884;2022-07-23T15:07:40;6.20;;;2.75;;
29202;SDS011;16245;51.170;4.884;2022-07-23T15:10:06;3.85;;;3.33;;
29202;SDS011;16245;51.170;4.884;2022-07-23T15:12:31;3.50;;;3.13;;
29202;SDS011;16245;51.170;4.884;2022-07-23T15:14:57;4.53;;;3.42;;
29202;SDS011;16245;51.170;4.884;2022-07-23T15:17:23;4.07;;;3.08;;
29202;SDS011;16245;51.170;4.884;2022-07-23T15:19:49;5.70;;;3.00;;
29202;SDS011;16245;51.170;4.884;2022-07-23T15:22:16;4.55;;;3.05;;
29202;SDS011;16245;51.170;4.884;2022-07-23T15:24:42;3.53;;;3.05;;
29202;SDS011;16245;51.170;4.884;2022-07-23T15:27:08;5.00;;;2.90;;
29202;SDS011;16245;51.170;4.884;2022-07-23T15:29:33;3.92;;;3.58;;
29202;SDS011;16245;51.170;4.884;2022-07-23T15:31:59;3.20;;;2.78;;